createdAt,value
2018-06-29T00:00:16.479Z,20.58
2018-06-29T00:02:45.336Z,20.58
2018-06-29T00:05:13.858Z,20.53
2018-06-29T00:07:42.186Z,20.50
2018-06-29T00:10:12.032Z,20.47
2018-06-29T00:12:40.394Z,20.42
2018-06-29T00:15:08.790Z,20.33
2018-06-29T00:17:37.105Z,20.27
2018-06-29T00:20:05.634Z,20.27
2018-06-29T00:22:33.954Z,20.21
2018-06-29T00:25:02.295Z,20.21
2018-06-29T00:27:30.636Z,20.24
2018-06-29T00:29:58.961Z,20.20
2018-06-29T00:32:27.396Z,20.21
2018-06-29T00:34:55.835Z,20.14
2018-06-29T00:37:24.114Z,20.09
2018-06-29T00:39:52.424Z,20.07
2018-06-29T00:42:20.769Z,20.05
2018-06-29T00:44:49.117Z,20.05
2018-06-29T00:47:17.441Z,19.98
2018-06-29T00:49:45.778Z,19.94
2018-06-29T00:52:14.088Z,19.94
2018-06-29T00:54:42.487Z,19.95
2018-06-29T00:57:10.843Z,19.92
2018-06-29T00:59:39.200Z,19.89
2018-06-29T01:02:07.511Z,19.86
2018-06-29T01:04:35.842Z,19.82
2018-06-29T01:07:04.204Z,19.78
2018-06-29T01:09:32.548Z,19.79
2018-06-29T01:12:00.879Z,19.77
2018-06-29T01:14:29.194Z,19.79
2018-06-29T01:16:57.516Z,19.76
2018-06-29T01:19:25.886Z,19.72
2018-06-29T01:21:54.191Z,19.72
2018-06-29T01:24:22.521Z,19.70
2018-06-29T01:26:50.897Z,19.67
2018-06-29T01:29:19.206Z,19.62
2018-06-29T01:31:47.525Z,19.59
2018-06-29T01:34:15.865Z,19.59
2018-06-29T01:36:44.199Z,19.53
2018-06-29T01:39:12.523Z,19.49
2018-06-29T01:41:40.864Z,19.45
2018-06-29T01:44:09.195Z,19.45
2018-06-29T01:46:37.539Z,19.43
2018-06-29T01:49:05.851Z,19.44
2018-06-29T01:51:34.187Z,19.40
2018-06-29T01:54:02.507Z,19.42
2018-06-29T01:56:30.826Z,19.35
2018-06-29T01:58:59.147Z,19.31
2018-06-29T02:01:27.470Z,19.32
2018-06-29T02:03:55.800Z,19.33
2018-06-29T02:06:24.124Z,19.29
2018-06-29T02:08:52.439Z,19.25
2018-06-29T02:11:20.768Z,19.26
2018-06-29T02:13:49.169Z,19.23
2018-06-29T02:16:17.513Z,19.26
2018-06-29T02:18:45.875Z,19.22
2018-06-29T02:21:14.199Z,19.20
2018-06-29T02:23:42.509Z,19.16
2018-06-29T02:26:10.840Z,19.12
2018-06-29T02:28:39.149Z,19.11
2018-06-29T02:31:07.460Z,19.09
2018-06-29T02:33:35.790Z,19.07
2018-06-29T02:36:04.137Z,19.03
2018-06-29T02:38:32.456Z,18.96
2018-06-29T02:41:00.804Z,18.95
2018-06-29T02:43:29.114Z,18.90
2018-06-29T02:45:57.430Z,18.88
2018-06-29T02:48:25.752Z,18.87
2018-06-29T02:50:54.142Z,18.78
2018-06-29T02:53:22.451Z,18.79
2018-06-29T02:55:50.870Z,18.71
2018-06-29T02:58:19.216Z,18.72
2018-06-29T03:00:47.527Z,18.69
2018-06-29T03:03:15.852Z,18.68
2018-06-29T03:05:44.317Z,18.63
2018-06-29T03:08:12.634Z,18.68
2018-06-29T03:10:40.948Z,18.68
2018-06-29T03:13:09.250Z,18.60
2018-06-29T03:15:37.589Z,18.58
2018-06-29T03:18:05.952Z,18.58
2018-06-29T03:20:34.258Z,18.56
2018-06-29T03:23:02.564Z,18.56
2018-06-29T03:25:30.883Z,18.55
2018-06-29T03:27:59.224Z,18.55
2018-06-29T03:30:27.542Z,18.57
2018-06-29T03:32:55.924Z,18.54
2018-06-29T03:35:24.206Z,18.56
2018-06-29T03:37:52.515Z,18.58
2018-06-29T03:40:20.899Z,18.53
2018-06-29T03:42:49.142Z,18.54
2018-06-29T03:45:17.464Z,18.53
2018-06-29T03:47:45.789Z,18.50
2018-06-29T03:50:14.115Z,18.52
2018-06-29T03:52:42.454Z,18.54
2018-06-29T03:55:10.775Z,18.53
2018-06-29T03:57:39.113Z,18.54
2018-06-29T04:00:07.433Z,18.56
2018-06-29T04:02:35.783Z,18.57
2018-06-29T04:05:04.111Z,18.57
2018-06-29T04:07:32.435Z,18.59
2018-06-29T04:10:00.743Z,18.62
2018-06-29T04:12:29.065Z,18.63
2018-06-29T04:14:57.441Z,18.67
2018-06-29T04:17:25.774Z,18.69
2018-06-29T04:19:54.094Z,18.67
2018-06-29T04:22:22.413Z,18.72
2018-06-29T04:24:50.729Z,18.74
2018-06-29T04:27:19.064Z,18.81
2018-06-29T04:29:47.364Z,18.81
2018-06-29T04:32:15.700Z,18.85
2018-06-29T04:34:44.018Z,18.89
2018-06-29T04:37:12.326Z,18.93
2018-06-29T04:39:40.671Z,18.91
2018-06-29T04:42:08.983Z,18.97
2018-06-29T04:44:37.295Z,19.05
2018-06-29T04:47:05.608Z,19.08
2018-06-29T04:49:33.924Z,19.14
2018-06-29T04:52:02.238Z,19.17
2018-06-29T04:54:30.591Z,19.24
2018-06-29T04:56:59.934Z,19.25
2018-06-29T04:59:28.268Z,19.32
2018-06-29T05:01:56.600Z,19.35
2018-06-29T05:04:24.926Z,19.43
2018-06-29T05:06:53.478Z,19.50
2018-06-29T05:09:21.858Z,19.57
2018-06-29T05:11:50.308Z,19.63
2018-06-29T05:14:18.644Z,19.70
2018-06-29T05:16:46.949Z,19.77
2018-06-29T05:19:15.261Z,19.83
2018-06-29T05:21:43.569Z,19.90
2018-06-29T05:24:11.878Z,19.99
2018-06-29T05:26:40.211Z,20.10
2018-06-29T05:29:08.575Z,20.17
2018-06-29T05:31:36.858Z,20.32
2018-06-29T05:34:05.301Z,20.39
2018-06-29T05:36:33.648Z,20.53
2018-06-29T05:39:01.998Z,20.64
2018-06-29T05:41:30.449Z,20.73
2018-06-29T05:43:58.745Z,20.88
2018-06-29T05:46:27.088Z,21.01
2018-06-29T05:48:55.441Z,21.15
2018-06-29T05:51:23.760Z,21.27
2018-06-29T05:53:52.065Z,21.46
2018-06-29T05:56:20.400Z,21.58
2018-06-29T05:58:48.752Z,21.76
2018-06-29T06:01:17.090Z,21.98
2018-06-29T06:03:45.446Z,22.12
2018-06-29T06:06:13.787Z,22.37
2018-06-29T06:08:42.147Z,22.56
2018-06-29T06:11:10.481Z,22.94
2018-06-29T06:13:38.833Z,23.14
2018-06-29T06:16:07.188Z,23.44
2018-06-29T06:18:35.564Z,23.74
2018-06-29T06:21:03.936Z,23.95
2018-06-29T06:23:32.266Z,24.32
2018-06-29T06:26:00.580Z,24.63
2018-06-29T06:28:28.931Z,24.83
2018-06-29T06:30:57.275Z,25.08
2018-06-29T06:33:25.645Z,25.39
2018-06-29T06:35:53.995Z,25.70
2018-06-29T06:38:22.324Z,25.93
2018-06-29T06:40:50.680Z,26.27
2018-06-29T06:43:19.039Z,26.58
2018-06-29T06:45:47.410Z,26.73
2018-06-29T06:48:15.764Z,27.20
2018-06-29T06:50:44.103Z,27.29
2018-06-29T06:53:12.485Z,27.45
2018-06-29T06:55:40.855Z,27.90
2018-06-29T06:58:09.201Z,28.24
2018-06-29T07:00:37.539Z,28.41
2018-06-29T07:03:05.883Z,28.61
2018-06-29T07:05:34.237Z,28.82
2018-06-29T07:08:02.587Z,29.14
2018-06-29T07:10:30.898Z,29.24
2018-06-29T07:14:23.691Z,29.52
2018-06-29T07:16:52.040Z,30.04
2018-06-29T07:19:20.408Z,30.14
2018-06-29T07:21:48.753Z,30.49
2018-06-29T07:24:17.133Z,31.13
2018-06-29T07:26:45.501Z,31.25
2018-06-29T07:29:13.852Z,31.38
2018-06-29T07:31:42.186Z,32.00
2018-06-29T07:34:10.518Z,32.55
2018-06-29T07:36:38.873Z,33.02
2018-06-29T07:39:07.957Z,34.01
2018-06-29T07:41:36.288Z,35.70
2018-06-29T07:44:04.649Z,35.21
2018-06-29T07:46:33.065Z,35.98
2018-06-29T07:49:01.367Z,36.48
2018-06-29T07:51:29.706Z,35.54
2018-06-29T07:53:58.080Z,35.47
2018-06-29T07:56:26.510Z,36.31
2018-06-29T07:58:54.910Z,36.31
2018-06-29T08:01:23.271Z,36.18
2018-06-29T08:03:51.728Z,35.42
2018-06-29T08:06:20.069Z,36.68
2018-06-29T08:08:48.420Z,36.39
2018-06-29T08:11:16.751Z,37.20
2018-06-29T08:13:45.100Z,37.62
2018-06-29T08:16:13.466Z,38.79
2018-06-29T08:18:41.813Z,38.48
2018-06-29T08:21:10.171Z,38.16
2018-06-29T08:23:38.545Z,38.91
2018-06-29T08:26:18.325Z,39.50
2018-06-29T08:28:46.675Z,40.45
2018-06-29T08:31:15.035Z,40.09
2018-06-29T08:33:43.410Z,40.30
2018-06-29T08:36:11.832Z,41.09
2018-06-29T08:38:40.194Z,40.24
2018-06-29T08:41:08.795Z,41.45
2018-06-29T08:43:37.137Z,41.50
2018-06-29T08:46:05.517Z,42.46
2018-06-29T08:48:33.914Z,41.50
2018-06-29T08:51:02.393Z,42.02
2018-06-29T08:53:31.308Z,42.46
2018-06-29T08:55:59.660Z,42.31
2018-06-29T08:58:28.041Z,43.01
2018-06-29T09:00:56.381Z,43.29
2018-06-29T09:03:24.812Z,44.67
2018-06-29T09:05:53.180Z,42.78
2018-06-29T09:08:21.632Z,42.92
2018-06-29T09:10:50.005Z,42.43
2018-06-29T09:13:18.366Z,41.89
2018-06-29T09:15:46.765Z,42.99
2018-06-29T09:18:15.142Z,43.08
2018-06-29T09:20:43.501Z,43.26
2018-06-29T09:23:11.885Z,43.11
2018-06-29T09:25:40.283Z,43.22
2018-06-29T09:28:08.647Z,43.60
2018-06-29T09:30:37.040Z,43.32
2018-06-29T09:33:05.661Z,42.97
2018-06-29T09:35:33.993Z,42.82
2018-06-29T09:38:02.383Z,43.07
2018-06-29T09:40:30.731Z,44.00
2018-06-29T09:42:59.100Z,43.50
2018-06-29T09:45:27.450Z,45.57
2018-06-29T09:47:55.814Z,45.87
2018-06-29T09:50:24.169Z,44.87
2018-06-29T09:52:52.507Z,44.22
2018-06-29T09:55:20.868Z,42.13
2018-06-29T09:57:49.200Z,42.17
2018-06-29T10:00:21.772Z,41.99
2018-06-29T10:02:50.128Z,42.45
2018-06-29T10:05:18.472Z,42.71
2018-06-29T10:07:46.811Z,42.28
2018-06-29T10:10:15.137Z,42.91
2018-06-29T10:12:43.478Z,43.20
2018-06-29T10:15:11.855Z,44.20
2018-06-29T10:17:40.196Z,42.89
2018-06-29T10:20:08.640Z,43.59
2018-06-29T10:22:36.891Z,43.56
2018-06-29T10:25:05.257Z,43.30
2018-06-29T10:27:33.592Z,42.59
2018-06-29T10:30:01.928Z,42.17
2018-06-29T10:32:30.288Z,42.43
2018-06-29T10:34:58.825Z,41.63
2018-06-29T10:37:27.173Z,40.61
2018-06-29T10:39:55.532Z,40.56
2018-06-29T10:42:23.889Z,39.93
2018-06-29T10:44:52.321Z,39.77
2018-06-29T10:47:20.724Z,39.78
2018-06-29T10:49:49.054Z,39.54
2018-06-29T10:52:17.383Z,39.56
2018-06-29T10:54:45.749Z,38.80
2018-06-29T10:57:14.157Z,38.36
2018-06-29T10:59:42.588Z,36.91
2018-06-29T11:02:10.917Z,37.01
2018-06-29T11:04:39.222Z,35.86
2018-06-29T11:07:07.598Z,34.83
2018-06-29T11:09:35.934Z,34.46
2018-06-29T11:12:05.018Z,34.71
2018-06-29T11:14:33.572Z,34.08
2018-06-29T11:17:01.921Z,32.96
2018-06-29T11:19:30.284Z,32.96
2018-06-29T11:21:58.643Z,32.86
2018-06-29T11:24:27.044Z,32.47
2018-06-29T11:26:55.357Z,32.15
2018-06-29T11:29:23.662Z,32.10
2018-06-29T11:31:51.979Z,31.65
2018-06-29T11:34:20.355Z,31.87
2018-06-29T11:36:48.772Z,31.55
2018-06-29T11:39:17.056Z,31.33
2018-06-29T11:41:45.493Z,31.69
2018-06-29T11:44:13.971Z,31.19
2018-06-29T11:46:42.336Z,30.88
2018-06-29T11:49:10.707Z,30.27
2018-06-29T11:51:39.044Z,30.04
2018-06-29T11:54:07.887Z,30.22
2018-06-29T11:56:36.289Z,29.93
2018-06-29T11:59:04.639Z,29.86
2018-06-29T12:01:32.954Z,30.10
2018-06-29T12:04:01.518Z,29.85
2018-06-29T12:06:29.880Z,29.89
2018-06-29T12:08:58.324Z,29.89
2018-06-29T12:11:26.680Z,29.55
2018-06-29T12:13:55.352Z,29.55
2018-06-29T12:16:23.689Z,29.69
2018-06-29T12:18:52.037Z,29.22
2018-06-29T12:21:20.376Z,29.12
2018-06-29T12:23:48.690Z,29.16
2018-06-29T12:26:17.077Z,29.00
2018-06-29T12:28:45.479Z,29.02
2018-06-29T12:31:13.843Z,28.86
2018-06-29T12:33:42.202Z,28.90
2018-06-29T12:36:10.557Z,28.71
2018-06-29T12:38:38.891Z,28.64
2018-06-29T12:41:07.238Z,28.70
2018-06-29T12:43:35.651Z,28.55
2018-06-29T12:46:03.995Z,28.85
2018-06-29T12:48:32.663Z,28.66
2018-06-29T12:51:01.013Z,28.58
2018-06-29T12:53:29.426Z,28.46
2018-06-29T12:55:57.844Z,28.65
2018-06-29T12:58:26.180Z,28.60
2018-06-29T13:00:54.555Z,28.45
2018-06-29T13:03:22.924Z,28.49
2018-06-29T13:05:51.258Z,28.39
2018-06-29T13:08:19.619Z,28.55
2018-06-29T13:10:48.127Z,28.45
2018-06-29T13:13:16.483Z,28.58
2018-06-29T13:15:44.860Z,28.58
2018-06-29T13:18:13.216Z,28.62
2018-06-29T13:20:41.604Z,28.58
2018-06-29T13:23:10.026Z,28.52
2018-06-29T13:25:38.355Z,28.69
2018-06-29T13:28:06.699Z,28.57
2018-06-29T13:30:35.046Z,28.48
2018-06-29T13:33:03.383Z,28.43
2018-06-29T13:35:31.877Z,28.56
2018-06-29T13:38:00.251Z,28.64
2018-06-29T13:40:28.610Z,28.57
2018-06-29T13:42:56.939Z,28.71
2018-06-29T13:45:25.294Z,28.72
2018-06-29T13:47:53.644Z,28.71
2018-06-29T13:50:21.992Z,28.76
2018-06-29T13:52:50.319Z,28.61
2018-06-29T13:55:18.682Z,28.68
2018-06-29T13:57:46.980Z,28.61
2018-06-29T14:00:15.365Z,28.67
2018-06-29T14:02:43.714Z,28.81
2018-06-29T14:05:12.213Z,28.81
2018-06-29T14:07:40.528Z,28.77
2018-06-29T14:10:08.493Z,28.91
2018-06-29T14:12:36.820Z,28.85
2018-06-29T14:15:05.185Z,28.75
2018-06-29T14:17:33.550Z,28.75
2018-06-29T14:20:01.898Z,28.88
2018-06-29T14:22:30.237Z,28.90
2018-06-29T14:24:58.579Z,28.84
2018-06-29T14:27:26.911Z,28.80
2018-06-29T14:29:55.256Z,28.76
2018-06-29T14:32:23.567Z,28.75
2018-06-29T14:34:51.895Z,28.98
2018-06-29T14:37:20.204Z,28.77
2018-06-29T14:39:48.530Z,28.92
2018-06-29T14:42:17.030Z,28.96
2018-06-29T14:44:45.382Z,29.02
2018-06-29T14:47:13.821Z,29.06
2018-06-29T14:49:42.195Z,29.12
2018-06-29T14:52:10.500Z,29.07
2018-06-29T14:54:38.880Z,29.00
2018-06-29T14:57:07.289Z,28.87
2018-06-29T14:59:35.661Z,28.91
2018-06-29T15:02:04.070Z,28.97
2018-06-29T15:04:32.434Z,28.98
2018-06-29T15:07:00.818Z,28.94
2018-06-29T15:09:29.202Z,28.97
2018-06-29T15:11:57.607Z,28.78
2018-06-29T15:14:25.942Z,28.67
2018-06-29T15:16:54.287Z,28.81
2018-06-29T15:19:22.669Z,28.73
2018-06-29T15:21:51.065Z,28.82
2018-06-29T15:24:19.419Z,28.63
2018-06-29T15:26:48.355Z,28.64
2018-06-29T15:29:16.696Z,28.67
2018-06-29T15:31:45.179Z,28.66
2018-06-29T15:34:13.531Z,28.77
2018-06-29T15:36:41.914Z,28.82
2018-06-29T15:39:12.244Z,28.70
2018-06-29T15:41:40.823Z,28.61
2018-06-29T15:44:09.613Z,28.66
2018-06-29T15:46:38.021Z,28.64
2018-06-29T15:49:07.144Z,28.58
2018-06-29T15:51:35.535Z,28.50
2018-06-29T15:54:03.899Z,28.34
2018-06-29T15:56:32.252Z,28.14
2018-06-29T15:59:00.754Z,28.14
2018-06-29T16:01:29.127Z,28.07
2018-06-29T16:03:57.473Z,27.79
2018-06-29T16:06:25.843Z,27.78
2018-06-29T16:08:54.207Z,27.61
2018-06-29T16:11:22.569Z,27.57
2018-06-29T16:13:51.154Z,27.38
2018-06-29T16:16:19.520Z,27.45
2018-06-29T16:18:47.872Z,27.24
2018-06-29T16:21:16.246Z,27.00
2018-06-29T16:23:44.576Z,26.79
2018-06-29T16:26:12.935Z,26.68
2018-06-29T16:28:41.289Z,26.42
2018-06-29T16:31:09.704Z,26.36
2018-06-29T16:33:38.110Z,26.23
2018-06-29T16:36:06.452Z,26.17
2018-06-29T16:38:34.869Z,26.08
2018-06-29T16:41:03.220Z,26.17
2018-06-29T16:43:31.629Z,26.20
2018-06-29T16:45:59.998Z,26.02
2018-06-29T16:48:28.357Z,25.96
2018-06-29T16:50:56.764Z,25.92
2018-06-29T16:53:25.188Z,25.84
2018-06-29T16:55:53.551Z,25.84
2018-06-29T16:58:21.988Z,25.66
2018-06-29T17:00:50.284Z,25.49
2018-06-29T17:03:18.667Z,25.28
2018-06-29T17:05:47.045Z,25.18
2018-06-29T17:08:15.381Z,25.04
2018-06-29T17:10:43.729Z,24.84
2018-06-29T17:13:12.114Z,24.78
2018-06-29T17:15:40.472Z,24.70
2018-06-29T17:18:08.834Z,24.72
2018-06-29T17:20:37.217Z,24.66
2018-06-29T17:23:06.104Z,24.44
2018-06-29T17:25:34.493Z,24.43
2018-06-29T17:28:03.278Z,24.47
2018-06-29T17:30:31.719Z,24.40
2018-06-29T17:33:00.111Z,24.14
2018-06-29T17:35:28.510Z,24.08
2018-06-29T17:37:56.996Z,23.87
2018-06-29T17:40:25.339Z,23.71
2018-06-29T17:42:53.685Z,23.68
2018-06-29T17:45:22.134Z,23.59
2018-06-29T17:47:50.479Z,23.46
2018-06-29T17:50:18.816Z,23.43
2018-06-29T17:52:47.208Z,23.32
2018-06-29T17:55:15.612Z,23.25
2018-06-29T17:57:44.029Z,23.15
2018-06-29T18:00:12.476Z,23.21
2018-06-29T18:02:40.841Z,23.13
2018-06-29T18:05:09.224Z,23.04
2018-06-29T18:07:37.614Z,23.02
2018-06-29T18:10:05.999Z,22.97
2018-06-29T18:12:34.371Z,22.95
2018-06-29T18:15:02.779Z,22.98
2018-06-29T18:17:31.129Z,22.88
2018-06-29T18:19:59.485Z,22.78
2018-06-29T18:22:27.849Z,22.77
2018-06-29T18:24:56.163Z,22.73
2018-06-29T18:27:24.550Z,22.72
2018-06-29T18:29:52.883Z,22.70
2018-06-29T18:32:21.232Z,22.57
2018-06-29T18:34:49.571Z,22.57
2018-06-29T18:37:17.955Z,22.57
2018-06-29T18:39:46.303Z,22.56
2018-06-29T18:42:14.690Z,22.46
2018-06-29T18:44:43.048Z,22.37
2018-06-29T18:47:11.411Z,22.34
2018-06-29T18:49:39.775Z,22.30
2018-06-29T18:52:08.186Z,22.11
2018-06-29T18:54:36.541Z,22.08
2018-06-29T18:57:04.923Z,22.03
2018-06-29T18:59:33.252Z,22.00
2018-06-29T19:02:01.580Z,21.99
2018-06-29T19:04:29.924Z,21.93
2018-06-29T19:06:58.277Z,22.00
2018-06-29T19:11:53.990Z,21.94
2018-06-29T19:14:22.346Z,21.86
2018-06-29T19:16:50.644Z,21.77
2018-06-29T19:19:18.998Z,21.69
2018-06-29T19:21:47.312Z,21.50
2018-06-29T19:24:16.033Z,21.50
2018-06-29T19:26:44.380Z,21.52
2018-06-29T19:29:13.204Z,21.48
2018-06-29T19:31:42.537Z,21.46
2018-06-29T19:34:11.040Z,21.52
2018-06-29T19:36:39.398Z,21.50
2018-06-29T19:39:10.470Z,21.51
2018-06-29T19:41:40.301Z,21.34
2018-06-29T19:44:10.066Z,21.25
2018-06-29T19:46:38.718Z,21.23
2018-06-29T19:49:07.662Z,21.19
2018-06-29T19:51:36.120Z,21.06
2018-06-29T19:54:04.818Z,21.04
2018-06-29T19:56:33.477Z,21.03
2018-06-29T19:59:02.105Z,20.98
2018-06-29T20:01:30.412Z,20.90
2018-06-29T20:03:58.735Z,20.91
2018-06-29T20:06:27.084Z,20.95
2018-06-29T20:08:55.422Z,20.78
2018-06-29T20:11:23.791Z,20.70
2018-06-29T20:13:52.143Z,20.69
2018-06-29T20:16:20.531Z,20.63
2018-06-29T20:18:48.860Z,20.52
2018-06-29T20:21:17.214Z,20.43
2018-06-29T20:23:45.632Z,20.47
2018-06-29T20:26:14.017Z,20.49
2018-06-29T20:28:42.393Z,20.44
2018-06-29T20:31:10.775Z,20.42
2018-06-29T20:33:39.110Z,20.29
2018-06-29T20:36:07.878Z,20.20
2018-06-29T20:38:36.278Z,20.10
2018-06-29T20:41:04.938Z,19.95
2018-06-29T20:43:33.594Z,20.02
2018-06-29T20:46:01.979Z,19.90
2018-06-29T20:48:30.648Z,19.84
2018-06-29T20:50:59.175Z,19.74
2018-06-29T20:53:28.926Z,19.77
2018-06-29T20:55:57.392Z,19.58
2018-06-29T20:58:25.754Z,19.61
2018-06-29T21:00:54.571Z,19.51
2018-06-29T21:03:22.987Z,19.49
2018-06-29T21:05:51.360Z,19.44
2018-06-29T21:08:19.732Z,19.38
2018-06-29T21:10:48.079Z,19.29
2018-06-29T21:13:16.460Z,19.33
2018-06-29T21:15:44.839Z,19.29
2018-06-29T21:18:13.196Z,19.28
2018-06-29T21:20:41.873Z,19.19
2018-06-29T21:23:10.892Z,19.04
2018-06-29T21:25:39.960Z,19.10
2018-06-29T21:28:08.902Z,19.05
2018-06-29T21:30:37.229Z,19.03
2018-06-29T21:33:05.854Z,18.90
2018-06-29T21:35:34.298Z,18.87
2018-06-29T21:38:03.117Z,18.84
2018-06-29T21:40:32.085Z,18.86
2018-06-29T21:43:00.453Z,18.85
2018-06-29T21:45:28.773Z,18.72
2018-06-29T21:47:57.216Z,18.63
2018-06-29T21:50:25.605Z,18.61
2018-06-29T21:52:53.972Z,18.60
2018-06-29T21:55:22.561Z,18.59
2018-06-29T21:57:50.914Z,18.55
2018-06-29T22:00:19.625Z,18.55
2018-06-29T22:02:48.012Z,18.43
2018-06-29T22:05:17.323Z,18.52
2018-06-29T22:07:45.955Z,18.44
2018-06-29T22:10:14.291Z,18.34
2018-06-29T22:12:42.645Z,18.24
2018-06-29T22:15:16.111Z,18.14
2018-06-29T22:17:44.485Z,18.09
2018-06-29T22:20:12.863Z,18.14
2018-06-29T22:22:41.215Z,18.13
2018-06-29T22:25:10.299Z,17.91
2018-06-29T22:27:38.683Z,17.94
2018-06-29T22:30:07.268Z,17.81
2018-06-29T22:32:35.614Z,17.91
2018-06-29T22:35:03.997Z,17.86
2018-06-29T22:37:32.343Z,17.86
2018-06-29T22:40:00.724Z,17.88
2018-06-29T22:42:29.066Z,17.85
2018-06-29T22:44:57.430Z,17.70
2018-06-29T22:47:25.797Z,17.76
2018-06-29T22:49:54.168Z,17.66
2018-06-29T22:52:22.516Z,17.62
2018-06-29T22:54:50.890Z,17.65
2018-06-29T22:57:19.271Z,17.61
2018-06-29T22:59:47.621Z,17.65
2018-06-29T23:02:15.991Z,17.51
2018-06-29T23:04:44.364Z,17.57
2018-06-29T23:07:12.725Z,17.56
2018-06-29T23:09:41.116Z,17.45
2018-06-29T23:12:09.518Z,17.41
2018-06-29T23:14:37.927Z,17.48
2018-06-29T23:17:06.973Z,17.38
2018-06-29T23:19:35.566Z,17.36
2018-06-29T23:22:03.952Z,17.32
2018-06-29T23:24:32.264Z,17.36
2018-06-29T23:27:00.631Z,17.31
2018-06-29T23:29:28.981Z,17.27
2018-06-29T23:31:57.329Z,17.28
2018-06-29T23:34:25.644Z,17.25
2018-06-29T23:36:54.061Z,17.20
2018-06-29T23:39:22.388Z,17.21
2018-06-29T23:41:50.703Z,17.16
2018-06-29T23:44:19.047Z,17.19
2018-06-29T23:46:47.417Z,17.21
2018-06-29T23:49:15.825Z,17.17
2018-06-29T23:51:44.191Z,16.97
2018-06-29T23:54:12.540Z,16.89
2018-06-29T23:56:40.891Z,17.03
2018-06-29T23:59:09.229Z,16.99
